LFBU/ANG METAR and TAF weather

Enter ICAO airport designator
Station Type Date Time Source
LFBU METAR 2022/01/18 08:00 UTC NOAA

LFBU 180800Z AUTO 03009KT CAVOK 01/M00 Q1032 TEMPO 0300 FG VV///


Station Type Date Time Source
LFBU Decoded METAR 2022/01/18 08:00 UTC NOAA

Station name not available
Jan 18, 2022 - 03:00 AM EST / 2022.01.18 0800 UTC
Wind: from the NNE (030 degrees) at 10 MPH (9 KT):0
Visibility: greater than 7 mile(s):0
Temperature: 33 F (1 C)
Windchill: 24 F (-4 C):1
Dew Point: 32 F (0 C)
Relative Humidity: 93%
Pressure (altimeter): 30.47 in. Hg (1032 hPa)
ob: LFBU 180800Z AUTO 03009KT CAVOK 01/M00 Q1032 TEMPO 0300 FG VV///
cycle: 8

Station Type Date Time Source
LFBU TAF 2022/01/18 06:00 UTC NOAA

TAF LFBU 180500Z 1806/1906 03008KT CAVOK
BECMG 1806/1808 OVC005 PROB30
TEMPO 1806/1809 0300 FG VV///
BECMG 1812/1814 9999 NSW BKN006
TEMPO 1902/1906 3000 RADZ OVC002

Example: see airport list